Time;durP1;ratioP1;P1;durP2;ratioP2;P2;SDS_P1;SDS_P2;PMS_P1;PMS_P2;Temp;Humidity;BMP_temperature;BMP_pressure;BME280_temperature;BME280_humidity;BME280_pressure;Samples;Min_cycle;Max_cycle;Signal;HPM_P1;HPM_P2
2022/06/22 00:01:44;;;;;;;;;;;;;;;22.96;42.79;101193.13;7271530;19;154800;-83
2022/06/22 00:04:24;;;;;;;;;;;;;;;22.97;43.19;101189.16;7273695;19;152053;-83
2022/06/22 00:06:56;;;;;;;;;;;;;;;22.98;43.00;101190.00;7278581;19;154332;-83
2022/06/22 00:09:26;;;;;;;;;;;;;;;22.99;43.24;101197.28;7279679;19;153295;-84
2022/06/22 00:11:53;;;;;;;;;;;;;;;23.00;43.40;101190.50;7276207;19;154856;-82
2022/06/22 00:14:24;;;;;;;;;;;;;;;23.00;43.78;101196.97;7275778;19;152550;-84
2022/06/22 00:16:53;;;;;;;;;;;;;;;23.02;43.52;101191.00;7278485;19;151976;-85
2022/06/22 00:19:31;;;;;;;;;;;;;;;23.02;44.01;101183.41;7277757;19;152481;-85
2022/06/22 00:21:58;;;;;;;;;;;;;;;23.06;44.09;101183.59;7276125;19;153863;-85
2022/06/22 00:24:25;;;;;;;;;;;;;;;23.09;44.28;101179.28;7275174;19;152858;-84
2022/06/22 00:26:55;;;;;;;;;;;;;;;23.10;44.13;101184.59;7275803;19;152875;-84
2022/06/22 00:29:23;;;;;;;;;;;;;;;23.10;43.99;101180.94;7277349;19;155608;-84
2022/06/22 00:31:49;;;;;;;;;;;;;;;23.13;44.33;101183.97;7286021;19;152611;-84
2022/06/22 00:34:27;;;;;;;;;;;;;;;23.12;44.20;101182.31;7276566;19;155779;-84
2022/06/22 00:36:59;;;;;;;;;;;;;;;23.10;44.13;101176.16;7277226;19;152600;-83
2022/06/22 00:39:29;;;;;;;;;;;;;;;23.10;44.62;101178.97;7276865;19;152525;-84
2022/06/22 00:41:59;;;;;;;;;;;;;;;23.10;44.42;101176.16;7277249;19;155146;-84
2022/06/22 00:44:29;;;;;;;;;;;;;;;23.12;44.56;101181.47;7278078;19;151584;-84
2022/06/22 00:47:02;;;;;;;;;;;;;;;23.12;44.57;101182.31;7277069;19;153774;-84
2022/06/22 00:49:30;;;;;;;;;;;;;;;23.12;44.80;101175.84;7273441;19;154130;-84
2022/06/22 00:51:59;;;;;;;;;;;;;;;23.10;44.94;101176.16;7279233;19;151902;-85
2022/06/22 00:54:27;;;;;;;;;;;;;;;23.12;44.96;101179.50;7280742;19;152634;-83
2022/06/22 00:57:07;;;;;;;;;;;;;;;23.15;45.24;101178.00;7276153;19;152524;-84
2022/06/22 00:59:34;;;;;;;;;;;;;;;23.17;45.04;101175.72;7277265;19;153705;-84
2022/06/22 01:02:04;;;;;;;;;;;;;;;23.15;45.23;101164.75;7277145;19;154283;-84
2022/06/22 01:04:46;;;;;;;;;;;;;;;23.14;45.41;101163.06;7271385;19;154836;-82
2022/06/22 01:07:22;;;;;;;;;;;;;;;23.18;45.44;101164.09;7275432;19;152607;-82
2022/06/22 01:10:00;;;;;;;;;;;;;;;23.24;45.40;101165.63;7274615;19;153623;-83
2022/06/22 01:12:50;;;;;;;;;;;;;;;23.23;45.14;101168.78;7274595;19;153004;-82
2022/06/22 01:15:25;;;;;;;;;;;;;;;23.22;45.31;101151.03;7276297;19;152987;-83
2022/06/22 01:18:08;;;;;;;;;;;;;;;23.22;45.57;101145.38;7284012;19;154253;-82
2022/06/22 01:20:44;;;;;;;;;;;;;;;23.21;45.46;101135.28;7277429;19;153046;-83
2022/06/22 01:23:20;;;;;;;;;;;;;;;23.16;45.69;101115.69;7273336;19;153350;-83
2022/06/22 01:25:50;;;;;;;;;;;;;;;23.21;45.73;101123.16;7274479;19;151999;-83
2022/06/22 01:28:17;;;;;;;;;;;;;;;23.28;45.96;101129.16;7277182;19;152409;-84
2022/06/22 01:30:48;;;;;;;;;;;;;;;23.34;45.64;101117.44;7275964;19;153095;-84
2022/06/22 01:33:15;;;;;;;;;;;;;;;23.25;46.04;101127.00;7276272;19;152567;-84
2022/06/22 01:35:42;;;;;;;;;;;;;;;23.22;46.52;101128.47;7275919;19;153841;-84
2022/06/22 01:38:13;;;;;;;;;;;;;;;23.19;46.46;101129.13;7273417;19;153713;-85
2022/06/22 01:40:45;;;;;;;;;;;;;;;23.18;46.53;101127.44;7282739;19;152266;-84
2022/06/22 01:43:20;;;;;;;;;;;;;;;23.18;46.57;101118.16;7272484;19;153274;-83
2022/06/22 01:45:51;;;;;;;;;;;;;;;23.19;46.87;101120.66;7244424;19;152731;-83
2022/06/22 01:48:17;;;;;;;;;;;;;;;23.18;46.92;101115.34;7267950;19;153918;-84
2022/06/22 01:51:01;;;;;;;;;;;;;;;23.21;46.69;101115.56;7265455;19;154347;-80
2022/06/22 01:53:34;;;;;;;;;;;;;;;23.26;46.94;101106.94;7276621;19;152790;-84
2022/06/22 01:56:01;;;;;;;;;;;;;;;23.26;46.90;101109.75;7280174;19;152960;-84
2022/06/22 01:58:34;;;;;;;;;;;;;;;23.28;47.12;101115.91;7280024;19;153163;-83
2022/06/22 02:01:11;;;;;;;;;;;;;;;23.31;46.58;101114.41;7276746;19;153248;-84
2022/06/22 02:04:01;;;;;;;;;;;;;;;23.26;46.94;101125.84;7282523;19;152533;-84
2022/06/22 02:09:24;;;;;;;;;;;;;;;23.25;47.14;101119.38;7281748;19;154129;-84
2022/06/22 02:12:18;;;;;;;;;;;;;;;23.24;47.49;101129.00;7281109;19;155704;-84
2022/06/22 02:14:43;;;;;;;;;;;;;;;23.27;47.10;101121.84;7278615;19;152848;-84
2022/06/22 02:17:13;;;;;;;;;;;;;;;23.28;47.80;101127.19;7279784;19;154793;-83
2022/06/22 02:19:42;;;;;;;;;;;;;;;23.30;47.26;101121.22;7272659;19;155374;-82
2022/06/22 02:22:12;;;;;;;;;;;;;;;23.27;46.93;101128.34;7274835;19;152495;-82
2022/06/22 02:24:42;;;;;;;;;;;;;;;23.25;47.20;101135.47;7275673;19;153498;-82
2022/06/22 02:27:14;;;;;;;;;;;;;;;23.25;47.11;101141.94;7271427;19;152428;-82
2022/06/22 02:29:53;;;;;;;;;;;;;;;23.24;47.18;101139.44;7272909;19;152988;-82
2022/06/22 02:32:23;;;;;;;;;;;;;;;23.24;46.88;101143.09;7273968;19;155832;-83
2022/06/22 02:34:54;;;;;;;;;;;;;;;23.23;46.93;101146.22;7271428;19;153925;-83
2022/06/22 02:37:27;;;;;;;;;;;;;;;23.23;47.03;101143.41;7274996;19;154206;-83
2022/06/22 02:39:58;;;;;;;;;;;;;;;23.23;46.87;101137.75;7276969;19;153291;-83
2022/06/22 02:45:15;;;;;;;;;;;;;;;23.21;46.67;101146.56;7279471;19;152535;-84
2022/06/22 02:47:48;;;;;;;;;;;;;;;23.23;46.65;101147.06;7286449;19;155546;-82
2022/06/22 02:50:22;;;;;;;;;;;;;;;23.24;46.82;101139.44;7277948;19;155220;-81
2022/06/22 02:52:51;;;;;;;;;;;;;;;23.26;46.84;101137.94;7286016;19;153675;-85
2022/06/22 02:55:21;;;;;;;;;;;;;;;23.30;46.70;101135.34;7286762;19;152457;-85
2022/06/22 02:57:55;;;;;;;;;;;;;;;23.29;46.97;101145.78;7284539;19;152017;-85
2022/06/22 03:00:24;;;;;;;;;;;;;;;23.28;46.85;101138.47;7279908;19;155665;-84
2022/06/22 03:02:56;;;;;;;;;;;;;;;23.32;46.76;101138.66;7279937;19;152455;-86
2022/06/22 03:05:24;;;;;;;;;;;;;;;23.32;47.05;101141.47;7281391;19;152593;-85
2022/06/22 03:07:58;;;;;;;;;;;;;;;23.37;46.96;101139.34;7282765;19;153360;-85
2022/06/22 03:10:31;;;;;;;;;;;;;;;23.32;47.11;101149.91;7294481;19;151941;-85
2022/06/22 03:12:59;;;;;;;;;;;;;;;23.34;47.29;101133.53;7286059;19;155802;-85
2022/06/22 03:15:29;;;;;;;;;;;;;;;23.32;47.39;101147.09;7281441;19;152460;-86
2022/06/22 03:17:57;;;;;;;;;;;;;;;23.29;47.12;101145.78;7284633;19;153318;-86
2022/06/22 03:20:27;;;;;;;;;;;;;;;23.35;47.47;101150.09;7284739;19;154813;-86
2022/06/22 03:22:58;;;;;;;;;;;;;;;23.39;47.25;101153.94;7285942;19;152837;-86
2022/06/22 03:25:46;;;;;;;;;;;;;;;23.40;47.07;101160.41;7284281;19;153718;-86
2022/06/22 03:28:22;;;;;;;;;;;;;;;23.41;47.27;101139.53;7283229;19;153376;-86
2022/06/22 03:30:57;;;;;;;;;;;;;;;23.42;47.25;101129.91;7283185;19;152231;-86
2022/06/22 03:33:37;;;;;;;;;;;;;;;23.43;47.02;101137.22;7291234;19;152254;-85
2022/06/22 03:36:09;;;;;;;;;;;;;;;23.39;47.36;101134.19;7284379;19;152631;-85
2022/06/22 03:38:41;;;;;;;;;;;;;;;23.42;47.32;101129.91;7285605;19;152636;-86
2022/06/22 03:41:15;;;;;;;;;;;;;;;23.42;47.13;101127.94;7284907;19;154833;-86
2022/06/22 03:43:49;;;;;;;;;;;;;;;23.43;47.56;101126.78;7287245;19;152086;-86
2022/06/22 03:46:20;;;;;;;;;;;;;;;23.47;47.17;101130.66;7281349;19;152868;-84
2022/06/22 03:48:59;;;;;;;;;;;;;;;23.42;47.21;101129.91;7281805;19;154526;-85
2022/06/22 03:51:40;;;;;;;;;;;;;;;23.42;47.79;101125.13;7284025;19;152156;-85
2022/06/22 03:54:19;;;;;;;;;;;;;;;23.38;47.48;101118.47;7283402;19;152045;-85
2022/06/22 03:56:49;;;;;;;;;;;;;;;23.40;47.44;101133.06;7293503;19;153934;-84
2022/06/22 03:59:16;;;;;;;;;;;;;;;23.39;47.64;101125.75;7280598;19;152300;-84
2022/06/22 04:01:44;;;;;;;;;;;;;;;23.35;47.53;101130.38;7280929;19;154905;-85
2022/06/22 04:04:11;;;;;;;;;;;;;;;23.39;47.60;101134.19;7277067;19;153887;-84
2022/06/22 04:06:43;;;;;;;;;;;;;;;23.43;47.66;101140.06;7285153;19;152355;-84
2022/06/22 04:09:15;;;;;;;;;;;;;;;23.41;47.82;101143.19;7284329;19;153248;-84
2022/06/22 04:11:52;;;;;;;;;;;;;;;23.37;47.95;101145.00;7282904;19;151997;-84
2022/06/22 04:14:21;;;;;;;;;;;;;;;23.37;47.75;101138.50;7280070;19;154304;-84
2022/06/22 04:16:50;;;;;;;;;;;;;;;23.38;47.80;101143.00;7281462;19;154010;-84
2022/06/22 04:19:18;;;;;;;;;;;;;;;23.33;47.86;101143.97;7292451;19;152649;-84
2022/06/22 04:21:48;;;;;;;;;;;;;;;23.40;48.16;101140.69;7281992;19;154039;-85
2022/06/22 04:24:32;;;;;;;;;;;;;;;23.39;47.83;101139.84;7283543;19;152243;-84
2022/06/22 04:27:09;;;;;;;;;;;;;;;23.45;47.78;101151.84;7283372;19;155182;-83
2022/06/22 04:29:42;;;;;;;;;;;;;;;23.42;47.78;101147.66;7279703;19;154254;-84
2022/06/22 04:32:23;;;;;;;;;;;;;;;23.42;47.77;101146.84;7284087;19;152051;-86
2022/06/22 04:34:55;;;;;;;;;;;;;;;23.36;47.83;101151.78;7283615;19;159217;-85
2022/06/22 04:37:32;;;;;;;;;;;;;;;23.32;48.22;101158.38;7283122;19;152272;-85
2022/06/22 04:40:18;;;;;;;;;;;;;;;23.31;48.34;101153.88;7289000;19;152162;-84
2022/06/22 04:42:56;;;;;;;;;;;;;;;23.29;48.29;101151.41;7283399;19;153206;-85
2022/06/22 04:45:25;;;;;;;;;;;;;;;23.28;48.51;101155.38;7281283;19;152975;-85
2022/06/22 04:47:52;;;;;;;;;;;;;;;23.28;48.58;101151.72;7280133;19;155304;-84
2022/06/22 04:50:19;;;;;;;;;;;;;;;23.32;48.34;101152.75;7283031;19;155538;-84
2022/06/22 04:52:53;;;;;;;;;;;;;;;23.29;48.38;101157.06;7282952;19;152711;-84
2022/06/22 04:55:23;;;;;;;;;;;;;;;23.28;48.38;101152.56;7283231;19;151842;-84
2022/06/22 04:57:52;;;;;;;;;;;;;;;23.29;48.52;101151.41;7282149;19;154469;-84
2022/06/22 05:00:21;;;;;;;;;;;;;;;23.27;48.79;101145.25;7276612;19;152569;-84
2022/06/22 05:02:59;;;;;;;;;;;;;;;23.31;48.94;101151.06;7289478;19;152024;-84
2022/06/22 05:05:29;;;;;;;;;;;;;;;23.32;48.59;101144.28;7277070;19;153143;-84
2022/06/22 05:07:59;;;;;;;;;;;;;;;23.31;48.83;101146.25;7281082;19;152860;-84
2022/06/22 05:10:45;;;;;;;;;;;;;;;23.31;49.06;101146.25;7281852;19;153099;-86
2022/06/22 05:13:16;;;;;;;;;;;;;;;23.30;48.85;101155.91;7280456;19;152332;-85
2022/06/22 05:15:45;;;;;;;;;;;;;;;23.29;48.95;101157.06;7278757;19;153905;-86
2022/06/22 05:18:15;;;;;;;;;;;;;;;23.29;49.07;101154.22;7264500;19;153549;-85
2022/06/22 05:20:51;;;;;;;;;;;;;;;23.27;49.24;101148.06;7278451;19;152060;-85
2022/06/22 05:23:20;;;;;;;;;;;;;;;23.28;49.11;101148.91;7283479;19;153186;-86
2022/06/22 05:25:49;;;;;;;;;;;;;;;23.28;49.11;101151.72;7286741;19;152767;-85
2022/06/22 05:28:36;;;;;;;;;;;;;;;23.30;49.81;101155.91;7275855;19;152600;-85
2022/06/22 05:31:29;;;;;;;;;;;;;;;23.28;49.61;101161.03;7270744;19;157742;-85
2022/06/22 05:33:59;;;;;;;;;;;;;;;23.28;49.69;101158.19;7279387;19;154471;-85
2022/06/22 05:36:27;;;;;;;;;;;;;;;23.33;49.35;101165.69;7282755;19;153398;-84
2022/06/22 05:38:56;;;;;;;;;;;;;;;23.39;49.49;101162.41;7281570;19;153769;-85
2022/06/22 05:41:31;;;;;;;;;;;;;;;23.38;49.53;101162.75;7278382;19;152086;-84
2022/06/22 05:44:00;;;;;;;;;;;;;;;23.39;49.80;101165.22;7281398;19;153306;-85
2022/06/22 05:46:28;;;;;;;;;;;;;;;23.39;49.58;101161.59;7278412;19;153426;-85
2022/06/22 05:48:56;;;;;;;;;;;;;;;23.39;49.74;101164.41;7286083;19;152336;-85
2022/06/22 05:51:25;;;;;;;;;;;;;;;23.41;49.73;101167.72;7279699;19;153674;-85
2022/06/22 05:53:59;;;;;;;;;;;;;;;23.38;50.03;101160.75;7281003;19;151995;-85
2022/06/22 05:56:31;;;;;;;;;;;;;;;23.39;49.87;101170.06;7279664;19;153917;-84
2022/06/22 05:58:58;;;;;;;;;;;;;;;23.39;49.95;101165.22;7279536;19;152828;-86
2022/06/22 06:01:47;;;;;;;;;;;;;;;23.38;49.57;101169.22;7279196;19;152403;-85
2022/06/22 06:04:30;;;;;;;;;;;;;;;23.40;49.67;101166.88;7280094;19;152586;-86
2022/06/22 06:07:05;;;;;;;;;;;;;;;23.41;49.57;101176.19;7281876;19;153221;-85
2022/06/22 06:09:33;;;;;;;;;;;;;;;23.39;49.56;101173.69;7278293;19;151714;-85
2022/06/22 06:12:05;;;;;;;;;;;;;;;23.44;49.96;101170.75;7288089;19;152309;-84
2022/06/22 06:14:34;;;;;;;;;;;;;;;23.42;49.80;101177.84;7285273;19;151876;-85
2022/06/22 06:17:04;;;;;;;;;;;;;;;23.42;49.98;101175.88;7287066;19;152359;-84
2022/06/22 06:19:33;;;;;;;;;;;;;;;23.40;49.89;101181.00;7285572;19;154924;-85
2022/06/22 06:22:01;;;;;;;;;;;;;;;23.40;49.16;101180.16;7287813;19;153449;-82
2022/06/22 06:24:37;;;;;;;;;;;;;;;23.37;48.60;101176.00;7284745;19;152579;-82
2022/06/22 06:30:00;;;;;;;;;;;;;;;23.30;48.37;101180.44;7279976;19;152323;-82
2022/06/22 06:32:30;;;;;;;;;;;;;;;23.30;48.46;101189.75;7287688;19;153095;-82
2022/06/22 06:35:32;;;;;;;;;;;;;;;23.33;48.58;101191.91;7288906;19;154354;-80
2022/06/22 06:38:18;;;;;;;;;;;;;;;23.30;48.73;101188.91;7283968;19;153274;-83
2022/06/22 06:41:02;;;;;;;;;;;;;;;23.27;48.53;101189.53;7284259;19;154194;-83
2022/06/22 06:43:49;;;;;;;;;;;;;;;23.25;49.13;101186.22;7285764;19;153639;-83
2022/06/22 06:46:21;;;;;;;;;;;;;;;23.22;48.92;101187.66;7281920;19;153626;-83
2022/06/22 06:49:03;;;;;;;;;;;;;;;23.21;48.70;101182.38;7284269;19;154381;-82
2022/06/22 06:51:30;;;;;;;;;;;;;;;23.27;48.67;101186.72;7286082;19;152370;-84
2022/06/22 06:54:02;;;;;;;;;;;;;;;23.24;48.68;101190.19;7285390;19;153351;-83
2022/06/22 06:56:33;;;;;;;;;;;;;;;23.21;48.33;101180.38;7292626;19;153975;-83
2022/06/22 06:59:02;;;;;;;;;;;;;;;23.21;48.33;101193.66;7285557;19;153560;-83
2022/06/22 07:01:32;;;;;;;;;;;;;;;23.20;48.34;101190.00;7279389;19;154364;-83
2022/06/22 07:04:19;;;;;;;;;;;;;;;23.19;48.55;101179.88;7285673;19;152247;-83
2022/06/22 07:06:46;;;;;;;;;;;;;;;23.19;48.03;101187.47;7284856;19;152202;-82
2022/06/22 07:09:16;;;;;;;;;;;;;;;23.18;45.15;101183.84;7282731;19;153228;-83
2022/06/22 07:11:46;;;;;;;;;;;;;;;23.16;43.56;101182.50;7286549;19;153258;-82
2022/06/22 07:14:32;;;;;;;;;;;;;;;23.12;43.02;101185.13;7283055;19;152216;-82
2022/06/22 07:17:01;;;;;;;;;;;;;;;23.05;42.88;101188.38;7283105;19;155544;-82
2022/06/22 07:19:48;;;;;;;;;;;;;;;23.03;43.11;101189.88;7292964;19;152416;-82
2022/06/22 07:22:33;;;;;;;;;;;;;;;22.97;42.82;101191.13;7284250;19;153247;-83
2022/06/22 07:25:00;;;;;;;;;;;;;;;22.92;42.34;101188.44;7283474;19;152356;-82
2022/06/22 07:27:34;;;;;;;;;;;;;;;22.91;42.60;101189.59;7285631;19;152261;-83
2022/06/22 07:30:06;;;;;;;;;;;;;;;22.88;41.79;101195.88;7277036;19;153216;-82
2022/06/22 07:32:42;;;;;;;;;;;;;;;22.81;41.81;101181.38;7284323;19;151926;-82
2022/06/22 07:35:12;;;;;;;;;;;;;;;22.77;41.42;101180.34;7284593;19;157017;-82
2022/06/22 07:38:08;;;;;;;;;;;;;;;22.71;42.50;101182.47;7284169;19;154263;-81
2022/06/22 07:40:35;;;;;;;;;;;;;;;22.73;42.89;101190.59;7280020;19;152183;-82
2022/06/22 07:43:01;;;;;;;;;;;;;;;22.73;43.22;101182.13;7291736;19;153045;-83
2022/06/22 07:45:29;;;;;;;;;;;;;;;22.75;44.34;101185.47;7280162;19;152263;-82
2022/06/22 07:48:06;;;;;;;;;;;;;;;22.73;44.35;101176.50;7282270;19;153793;-82
2022/06/22 07:50:36;;;;;;;;;;;;;;;22.72;45.01;101178.47;7282549;19;153204;-82
2022/06/22 07:53:27;;;;;;;;;;;;;;;22.71;44.75;101182.47;7285104;19;152346;-82
2022/06/22 07:56:01;;;;;;;;;;;;;;;22.69;44.94;101175.44;7283524;19;157108;-83
2022/06/22 07:58:32;;;;;;;;;;;;;;;22.71;45.31;101184.44;7284339;19;155395;-82
2022/06/22 08:01:02;;;;;;;;;;;;;;;22.72;45.49;101183.28;7281328;19;151922;-82
2022/06/22 08:03:34;;;;;;;;;;;;;;;22.73;45.23;101179.31;7285593;19;153238;-81
2022/06/22 08:06:14;;;;;;;;;;;;;;;22.72;45.62;101181.31;7288076;19;154205;-82
2022/06/22 08:08:54;;;;;;;;;;;;;;;22.71;45.93;101182.47;7284829;19;152891;-83
2022/06/22 08:11:41;;;;;;;;;;;;;;;22.71;45.96;101187.28;7278559;19;153930;-83
2022/06/22 08:14:07;;;;;;;;;;;;;;;22.72;45.60;101184.13;7284700;19;151844;-84
2022/06/22 08:16:41;;;;;;;;;;;;;;;22.72;45.85;101174.81;7280225;19;152980;-83
2022/06/22 08:19:07;;;;;;;;;;;;;;;22.71;45.57;101171.19;7281558;19;153719;-83
2022/06/22 08:21:41;;;;;;;;;;;;;;;22.73;45.83;101170.88;7284518;19;151950;-83
2022/06/22 08:24:09;;;;;;;;;;;;;;;22.72;45.71;101174.81;7283875;19;154415;-82
2022/06/22 08:26:37;;;;;;;;;;;;;;;22.72;45.92;101175.66;7281243;19;152945;-83
2022/06/22 08:29:04;;;;;;;;;;;;;;;22.71;46.00;101173.19;7290135;19;152158;-83
2022/06/22 08:31:36;;;;;;;;;;;;;;;22.72;46.21;101166.38;7274265;19;153353;-83
2022/06/22 08:34:07;;;;;;;;;;;;;;;22.72;45.75;101172.84;7280254;19;152146;-81
2022/06/22 08:36:38;;;;;;;;;;;;;;;22.72;46.29;101160.75;7279055;19;152854;-82
2022/06/22 08:39:09;;;;;;;;;;;;;;;22.72;45.88;101170.03;7281228;19;153908;-83
2022/06/22 08:41:36;;;;;;;;;;;;;;;22.72;46.23;101167.22;7281457;19;153074;-82
2022/06/22 08:44:18;;;;;;;;;;;;;;;22.73;46.10;101163.25;7281880;19;152743;-83
2022/06/22 08:47:03;;;;;;;;;;;;;;;22.73;46.26;101165.22;7280556;19;153307;-83
2022/06/22 08:49:37;;;;;;;;;;;;;;;22.75;45.87;101166.59;7289478;19;152141;-83
2022/06/22 08:52:05;;;;;;;;;;;;;;;22.76;45.66;101158.97;7283149;19;155999;-82
2022/06/22 08:54:35;;;;;;;;;;;;;;;22.76;46.03;101170.25;7280976;19;151999;-82
2022/06/22 08:57:20;;;;;;;;;;;;;;;22.77;45.81;101169.06;7283035;19;152635;-83
2022/06/22 09:00:05;;;;;;;;;;;;;;;22.77;45.74;101161.47;7277706;19;154355;-83
2022/06/22 09:02:52;;;;;;;;;;;;;;;22.81;46.12;101159.66;7278047;19;152288;-82
2022/06/22 09:05:33;;;;;;;;;;;;;;;22.85;45.87;101168.34;7280701;19;153119;-83
2022/06/22 09:08:12;;;;;;;;;;;;;;;22.84;45.71;101169.50;7281230;19;153615;-83
2022/06/22 09:10:39;;;;;;;;;;;;;;;22.91;45.56;101161.41;7282293;19;152718;-82
2022/06/22 09:13:21;;;;;;;;;;;;;;;22.89;46.15;101167.38;7287331;19;152685;-82
2022/06/22 09:16:06;;;;;;;;;;;;;;;22.90;45.98;101162.56;7281001;19;152048;-81
2022/06/22 09:18:52;;;;;;;;;;;;;;;22.95;45.99;101170.88;7282671;19;153036;-80
2022/06/22 09:21:38;;;;;;;;;;;;;;;23.10;46.69;101170.50;7281406;19;153480;-81
2022/06/22 09:24:23;;;;;;;;;;;;;;;23.16;47.25;101180.50;7283323;19;152100;-82
2022/06/22 09:27:02;;;;;;;;;;;;;;;23.17;48.23;101178.53;7281312;19;152523;-82
2022/06/22 09:29:29;;;;;;;;;;;;;;;23.14;48.09;101182.81;7276289;19;155248;-81
2022/06/22 09:32:15;;;;;;;;;;;;;;;23.14;47.76;101180.00;7221645;19;155646;-82
2022/06/22 09:34:48;;;;;;;;;;;;;;;23.16;48.73;101174.88;7270102;19;155918;-82
2022/06/22 09:37:14;;;;;;;;;;;;;;;23.22;48.14;101178.38;7287748;19;153584;-82
2022/06/22 09:39:53;;;;;;;;;;;;;;;23.23;47.80;101178.06;7278480;19;152759;-82
2022/06/22 09:42:26;;;;;;;;;;;;;;;23.23;48.49;101172.44;7281461;19;153942;-82
2022/06/22 09:44:53;;;;;;;;;;;;;;;23.27;48.45;101172.59;7270121;19;153565;-82
2022/06/22 09:47:20;;;;;;;;;;;;;;;23.30;48.41;101174.81;7277581;19;152962;-81
2022/06/22 09:49:58;;;;;;;;;;;;;;;23.31;48.29;101173.63;7272251;19;155266;-81
2022/06/22 09:52:31;;;;;;;;;;;;;;;23.30;48.49;101170.00;7274135;19;153998;-82
2022/06/22 09:57:58;;;;;;;;;;;;;;;23.35;48.11;101171.81;7276907;19;154329;-81
2022/06/22 10:00:25;;;;;;;;;;;;;;;23.34;48.51;101173.00;7282828;19;151978;-82
2022/06/22 10:03:10;;;;;;;;;;;;;;;23.37;48.34;101181.66;7277983;19;154616;-82
2022/06/22 10:05:37;;;;;;;;;;;;;;;23.39;48.66;101176.50;7273655;19;152221;-80
2022/06/22 10:08:22;;;;;;;;;;;;;;;23.43;48.88;101177.53;7278581;19;154492;-81
2022/06/22 10:11:11;;;;;;;;;;;;;;;23.44;48.99;101182.03;7277035;19;153918;-82
2022/06/22 10:13:43;;;;;;;;;;;;;;;23.48;49.03;101185.06;7279605;19;152138;-81
2022/06/22 10:16:09;;;;;;;;;;;;;;;23.50;49.02;101179.94;7277174;19;153372;-81
2022/06/22 10:18:36;;;;;;;;;;;;;;;23.53;49.49;101175.63;7276746;19;153427;-82
2022/06/22 10:21:09;;;;;;;;;;;;;;;23.56;49.27;101177.81;7280237;19;154121;-82
2022/06/22 10:23:41;;;;;;;;;;;;;;;23.58;49.28;101173.50;7287864;19;153511;-82
2022/06/22 10:26:24;;;;;;;;;;;;;;;23.62;49.47;101174.50;7280744;19;151846;-82
2022/06/22 10:28:54;;;;;;;;;;;;;;;23.63;49.76;101170.53;7278851;19;153286;-81
2022/06/22 10:31:39;;;;;;;;;;;;;;;23.64;49.41;101168.53;7276332;19;154553;-81
2022/06/22 10:34:38;;;;;;;;;;;;;;;23.65;49.73;101159.78;7281925;19;152306;-82
2022/06/22 10:37:22;;;;;;;;;;;;;;;23.70;49.40;101164.44;7276923;19;154736;-81
2022/06/22 10:40:04;;;;;;;;;;;;;;;23.72;49.42;101165.75;7275692;19;153496;-82
2022/06/22 10:45:40;;;;;;;;;;;;;;;23.74;48.70;101160.63;7275889;19;153004;-81
2022/06/22 10:48:39;;;;;;;;;;;;;;;23.77;48.21;101156.31;7287539;19;152584;-82
2022/06/22 10:51:12;;;;;;;;;;;;;;;23.77;48.38;101153.50;7276262;19;155130;-81
2022/06/22 10:53:39;;;;;;;;;;;;;;;23.76;48.26;101140.53;7278340;19;156151;-81
2022/06/22 10:56:22;;;;;;;;;;;;;;;23.77;47.98;101140.22;7279284;19;152196;-81
2022/06/22 10:58:55;;;;;;;;;;;;;;;23.78;48.18;101143.88;7277037;19;153814;-82
2022/06/22 11:01:25;;;;;;;;;;;;;;;23.79;47.96;101142.75;7282831;19;153476;-82
2022/06/22 11:03:57;;;;;;;;;;;;;;;23.79;48.04;101157.69;7286370;19;152067;-82
2022/06/22 11:06:23;;;;;;;;;;;;;;;23.81;48.17;101143.22;7285357;19;154950;-81
2022/06/22 11:08:50;;;;;;;;;;;;;;;23.85;47.86;101149.88;7293165;19;152409;-81
2022/06/22 11:11:40;;;;;;;;;;;;;;;23.83;48.00;101152.22;7283738;19;156652;-82
2022/06/22 11:14:07;;;;;;;;;;;;;;;23.83;47.70;101147.41;7283181;19;154148;-82
2022/06/22 11:16:44;;;;;;;;;;;;;;;23.85;47.91;101150.72;7284441;19;152771;-81
2022/06/22 11:19:30;;;;;;;;;;;;;;;23.88;47.48;101149.25;7286413;19;154088;-81
2022/06/22 11:22:02;;;;;;;;;;;;;;;23.88;47.33;101146.41;7285182;19;154401;-82
2022/06/22 11:24:32;;;;;;;;;;;;;;;23.89;47.24;101139.63;7285515;19;151960;-82
2022/06/22 11:32:56;;;;;;;;;;;;;;;23.92;47.50;101122.03;7293452;19;152758;-81
2022/06/22 11:35:22;;;;;;;;;;;;;;;23.92;46.94;101122.03;7284173;19;155144;-82
2022/06/22 11:38:13;;;;;;;;;;;;;;;23.91;47.06;101124.00;7287149;19;155252;-82
2022/06/22 11:40:53;;;;;;;;;;;;;;;23.91;47.14;101118.38;7285211;19;151945;-81
2022/06/22 11:43:23;;;;;;;;;;;;;;;23.92;46.89;101124.84;7283030;19;153784;-81
2022/06/22 11:45:56;;;;;;;;;;;;;;;23.90;46.94;101119.53;7279790;19;152209;-81
2022/06/22 11:48:23;;;;;;;;;;;;;;;23.90;46.83;101118.69;7285516;19;152667;-82
2022/06/22 11:50:52;;;;;;;;;;;;;;;23.94;47.08;101126.16;7280619;19;153265;-82
2022/06/22 11:53:35;;;;;;;;;;;;;;;23.94;46.83;101114.06;7285664;19;152491;-81
2022/06/22 11:56:11;;;;;;;;;;;;;;;23.98;47.21;101114.25;7292501;19;153307;-82
2022/06/22 11:59:08;;;;;;;;;;;;;;;23.92;47.14;101100.28;7284419;19;152054;-80
2022/06/22 12:01:43;;;;;;;;;;;;;;;23.94;46.83;101111.22;7277231;19;154548;-81
2022/06/22 12:04:13;;;;;;;;;;;;;;;23.96;46.79;101110.91;7282477;19;153299;-81
2022/06/22 12:06:49;;;;;;;;;;;;;;;23.96;46.83;101105.25;7284928;19;151959;-82
2022/06/22 12:09:34;;;;;;;;;;;;;;;23.95;46.74;101101.59;7283289;19;153867;-82
2022/06/22 12:12:29;;;;;;;;;;;;;;;23.96;46.93;101102.44;7283634;19;153903;-82
2022/06/22 12:15:10;;;;;;;;;;;;;;;23.96;46.63;101105.25;7283090;19;152247;-82
2022/06/22 12:17:37;;;;;;;;;;;;;;;23.94;46.59;101103.59;7285827;19;153088;-82
2022/06/22 12:20:25;;;;;;;;;;;;;;;23.97;46.79;101101.28;7291337;19;153212;-82
2022/06/22 12:23:12;;;;;;;;;;;;;;;23.95;46.57;101098.78;7284669;19;153545;-81
2022/06/22 12:25:38;;;;;;;;;;;;;;;23.95;46.77;101093.13;7282882;19;154171;-81
2022/06/22 12:28:08;;;;;;;;;;;;;;;23.94;46.49;101089.47;7285068;19;152339;-82
2022/06/22 12:30:57;;;;;;;;;;;;;;;23.96;46.47;101092.00;7277971;19;152481;-82
2022/06/22 12:33:30;;;;;;;;;;;;;;;23.97;46.54;101085.19;7282845;19;153523;-82
2022/06/22 12:36:01;;;;;;;;;;;;;;;23.96;46.56;101077.88;7284473;19;151944;-82
2022/06/22 12:38:31;;;;;;;;;;;;;;;23.94;46.73;101081.00;7281786;19;152829;-82
2022/06/22 12:41:36;;;;;;;;;;;;;;;23.96;46.33;101077.88;7282749;19;155463;-81
2022/06/22 12:44:26;;;;;;;;;;;;;;;23.97;46.17;101061.78;7289800;19;151887;-80
2022/06/22 12:47:11;;;;;;;;;;;;;;;24.00;46.24;101055.47;7277663;19;153818;-81
2022/06/22 12:49:46;;;;;;;;;;;;;;;23.97;46.56;101073.06;7281028;19;152205;-82
2022/06/22 12:52:15;;;;;;;;;;;;;;;23.94;46.46;101061.25;7284805;19;152992;-81
2022/06/22 12:54:45;;;;;;;;;;;;;;;23.94;46.19;101068.88;7281847;19;154224;-81
2022/06/22 12:57:27;;;;;;;;;;;;;;;23.96;46.35;101062.94;7285236;19;151779;-81
2022/06/22 12:59:57;;;;;;;;;;;;;;;23.95;46.47;101047.97;7280559;19;152586;-81
2022/06/22 13:02:27;;;;;;;;;;;;;;;23.95;46.08;101056.44;7280083;19;154870;-81
2022/06/22 13:04:58;;;;;;;;;;;;;;;23.96;46.24;101055.28;7280305;19;152737;-81
2022/06/22 13:07:25;;;;;;;;;;;;;;;23.94;46.32;101043.50;7289956;19;152566;-82
2022/06/22 13:09:52;;;;;;;;;;;;;;;23.94;46.50;101044.31;7280012;19;152040;-82
2022/06/22 13:12:19;;;;;;;;;;;;;;;23.95;46.32;101036.69;7284489;19;153570;-81
2022/06/22 13:14:48;;;;;;;;;;;;;;;23.93;46.59;101037.03;7279349;19;154333;-81
2022/06/22 13:17:24;;;;;;;;;;;;;;;23.93;46.58;101039.03;7281474;19;152385;-81
2022/06/22 13:20:00;;;;;;;;;;;;;;;23.94;46.42;101035.03;7282226;19;153834;-81
2022/06/22 13:22:31;;;;;;;;;;;;;;;23.93;46.57;101039.03;7282758;19;154485;-81
2022/06/22 13:25:07;;;;;;;;;;;;;;;23.94;46.33;101026.56;7280399;19;153196;-81